sensor_id;sensor_type;location;lat;lon;timestamp;pressure;altitude;pressure_sealevel;temperature;humidity
42887;BME280;29032;56.028;92.904;2023-05-14T00:04:07;99631.25;;;4.75;34.99
42887;BME280;29032;56.028;92.904;2023-05-14T00:09:11;99622.22;;;4.90;35.03
42887;BME280;29032;56.028;92.904;2023-05-14T00:14:31;99617.09;;;4.97;34.67
42887;BME280;29032;56.028;92.904;2023-05-14T00:19:33;99618.97;;;5.06;34.52
42887;BME280;29032;56.028;92.904;2023-05-14T00:24:37;99612.41;;;5.18;34.48
42887;BME280;29032;56.028;92.904;2023-05-14T00:29:39;99608.72;;;5.21;34.35
42887;BME280;29032;56.028;92.904;2023-05-14T00:40:03;99608.59;;;5.51;34.36
42887;BME280;29032;56.028;92.904;2023-05-14T00:45:06;99604.94;;;5.59;33.39
42887;BME280;29032;56.028;92.904;2023-05-14T00:50:09;99608.38;;;5.75;33.16
42887;BME280;29032;56.028;92.904;2023-05-14T00:55:14;99605.00;;;5.85;32.91
42887;BME280;29032;56.028;92.904;2023-05-14T01:00:17;99609.38;;;5.98;31.56
42887;BME280;29032;56.028;92.904;2023-05-14T01:05:20;99607.00;;;6.11;31.34
42887;BME280;29032;56.028;92.904;2023-05-14T01:10:44;99600.91;;;6.27;31.77
42887;BME280;29032;56.028;92.904;2023-05-14T01:15:54;99593.34;;;6.22;30.74
42887;BME280;29032;56.028;92.904;2023-05-14T01:20:57;99582.56;;;6.24;30.59
42887;BME280;29032;56.028;92.904;2023-05-14T01:26:00;99587.28;;;6.44;30.25
42887;BME280;29032;56.028;92.904;2023-05-14T01:31:21;99588.44;;;6.63;30.41
42887;BME280;29032;56.028;92.904;2023-05-14T01:36:26;99586.16;;;6.62;30.16
42887;BME280;29032;56.028;92.904;2023-05-14T01:41:31;99580.97;;;6.69;29.77
42887;BME280;29032;56.028;92.904;2023-05-14T01:46:33;99572.69;;;6.75;30.50
42887;BME280;29032;56.028;92.904;2023-05-14T01:51:35;99575.00;;;6.77;26.51
42887;BME280;29032;56.028;92.904;2023-05-14T01:56:39;99555.94;;;6.79;26.48
42887;BME280;29032;56.028;92.904;2023-05-14T02:01:41;99555.72;;;6.82;25.84
42887;BME280;29032;56.028;92.904;2023-05-14T02:07:02;99554.03;;;6.90;25.87
42887;BME280;29032;56.028;92.904;2023-05-14T02:12:06;99551.56;;;6.98;26.12
42887;BME280;29032;56.028;92.904;2023-05-14T02:17:08;99546.78;;;6.98;24.56
42887;BME280;29032;56.028;92.904;2023-05-14T02:22:11;99549.81;;;7.01;25.40
42887;BME280;29032;56.028;92.904;2023-05-14T02:27:14;99535.31;;;7.11;24.60
42887;BME280;29032;56.028;92.904;2023-05-14T02:32:16;99528.84;;;7.20;25.13
42887;BME280;29032;56.028;92.904;2023-05-14T02:42:58;99504.25;;;7.22;23.94
42887;BME280;29032;56.028;92.904;2023-05-14T02:48:18;99506.78;;;7.31;23.64
42887;BME280;29032;56.028;92.904;2023-05-14T02:53:21;99492.13;;;7.03;23.47
42887;BME280;29032;56.028;92.904;2023-05-14T03:09:04;99475.06;;;6.98;24.21
42887;BME280;29032;56.028;92.904;2023-05-14T03:14:26;99473.88;;;7.22;24.37
42887;BME280;29032;56.028;92.904;2023-05-14T03:19:28;99458.09;;;7.28;23.58
42887;BME280;29032;56.028;92.904;2023-05-14T03:24:30;99449.38;;;7.41;24.25
42887;BME280;29032;56.028;92.904;2023-05-14T03:29:33;99445.41;;;7.64;24.16
42887;BME280;29032;56.028;92.904;2023-05-14T03:34:35;99442.16;;;7.77;23.16
42887;BME280;29032;56.028;92.904;2023-05-14T03:40:14;99436.13;;;8.01;25.09
42887;BME280;29032;56.028;92.904;2023-05-14T03:45:20;99423.06;;;7.90;23.63
42887;BME280;29032;56.028;92.904;2023-05-14T03:50:22;99418.06;;;7.83;22.69
42887;BME280;29032;56.028;92.904;2023-05-14T03:55:25;99417.03;;;7.92;22.86
42887;BME280;29032;56.028;92.904;2023-05-14T04:00:29;99411.50;;;7.86;23.03
42887;BME280;29032;56.028;92.904;2023-05-14T04:05:31;99411.00;;;8.04;23.66
42887;BME280;29032;56.028;92.904;2023-05-14T04:10:33;99391.63;;;8.27;22.79
42887;BME280;29032;56.028;92.904;2023-05-14T04:15:37;99382.81;;;8.34;22.45
42887;BME280;29032;56.028;92.904;2023-05-14T04:20:39;99372.75;;;8.36;23.17
42887;BME280;29032;56.028;92.904;2023-05-14T04:25:41;99361.66;;;8.42;23.22
42887;BME280;29032;56.028;92.904;2023-05-14T04:30:44;99356.84;;;8.54;22.94
42887;BME280;29032;56.028;92.904;2023-05-14T04:35:46;99341.25;;;8.56;22.17
42887;BME280;29032;56.028;92.904;2023-05-14T04:40:48;99335.38;;;8.77;23.55
42887;BME280;29032;56.028;92.904;2023-05-14T04:45:52;99315.47;;;8.84;22.29
42887;BME280;29032;56.028;92.904;2023-05-14T04:50:54;99310.88;;;8.98;24.86
42887;BME280;29032;56.028;92.904;2023-05-14T04:56:14;99308.69;;;9.26;23.60
42887;BME280;29032;56.028;92.904;2023-05-14T05:01:36;99298.75;;;9.42;23.23
42887;BME280;29032;56.028;92.904;2023-05-14T05:06:38;99289.44;;;9.69;23.28
42887;BME280;29032;56.028;92.904;2023-05-14T05:11:58;99282.22;;;9.85;21.32
42887;BME280;29032;56.028;92.904;2023-05-14T05:17:02;99281.06;;;9.75;22.19
42887;BME280;29032;56.028;92.904;2023-05-14T05:22:04;99264.50;;;9.94;22.69
42887;BME280;29032;56.028;92.904;2023-05-14T05:27:06;99248.88;;;10.15;22.48
42887;BME280;29032;56.028;92.904;2023-05-14T05:32:28;99247.72;;;10.67;23.25
42887;BME280;29032;56.028;92.904;2023-05-14T05:37:33;99236.75;;;10.94;23.06
42887;BME280;29032;56.028;92.904;2023-05-14T05:42:34;99224.94;;;11.06;23.36
42887;BME280;29032;56.028;92.904;2023-05-14T05:47:38;99220.84;;;11.40;22.29
42887;BME280;29032;56.028;92.904;2023-05-14T05:52:40;99220.34;;;11.68;23.71
42887;BME280;29032;56.028;92.904;2023-05-14T05:57:42;99208.03;;;11.89;20.63
42887;BME280;29032;56.028;92.904;2023-05-14T06:02:46;99201.91;;;12.17;20.74
42887;BME280;29032;56.028;92.904;2023-05-14T06:07:48;99193.44;;;12.50;21.73
42887;BME280;29032;56.028;92.904;2023-05-14T06:12:50;99184.63;;;12.80;21.74
42887;BME280;29032;56.028;92.904;2023-05-14T06:17:53;99186.75;;;13.08;19.23
42887;BME280;29032;56.028;92.904;2023-05-14T06:23:13;99165.47;;;13.18;20.97
42887;BME280;29032;56.028;92.904;2023-05-14T06:28:15;99175.66;;;13.15;20.80
42887;BME280;29032;56.028;92.904;2023-05-14T06:33:19;99164.53;;;12.94;19.00
42887;BME280;29032;56.028;92.904;2023-05-14T06:38:21;99149.06;;;12.86;20.94
42887;BME280;29032;56.028;92.904;2023-05-14T06:43:42;99142.59;;;13.12;19.63
42887;BME280;29032;56.028;92.904;2023-05-14T06:48:45;99122.25;;;13.24;20.27
42887;BME280;29032;56.028;92.904;2023-05-14T06:54:05;99122.16;;;13.38;18.79
42887;BME280;29032;56.028;92.904;2023-05-14T06:59:07;99121.56;;;13.32;20.15
42887;BME280;29032;56.028;92.904;2023-05-14T07:04:11;99112.84;;;13.64;18.61
42887;BME280;29032;56.028;92.904;2023-05-14T07:09:13;99097.19;;;13.53;20.01
42887;BME280;29032;56.028;92.904;2023-05-14T07:14:33;99083.88;;;13.67;19.09
42887;BME280;29032;56.028;92.904;2023-05-14T07:24:56;99059.00;;;13.40;21.26
42887;BME280;29032;56.028;92.904;2023-05-14T07:30:17;99060.13;;;13.81;20.47
42887;BME280;29032;56.028;92.904;2023-05-14T07:35:21;99047.16;;;14.06;19.75
42887;BME280;29032;56.028;92.904;2023-05-14T07:40:23;99037.53;;;14.23;19.80
42887;BME280;29032;56.028;92.904;2023-05-14T07:45:25;99023.19;;;14.19;20.10
42887;BME280;29032;56.028;92.904;2023-05-14T07:56:08;99004.47;;;14.65;19.84
42887;BME280;29032;56.028;92.904;2023-05-14T08:01:10;98976.50;;;14.50;19.15
42887;BME280;29032;56.028;92.904;2023-05-14T08:06:31;98981.38;;;14.64;19.15
42887;BME280;29032;56.028;92.904;2023-05-14T08:11:33;98969.81;;;14.68;18.77
42887;BME280;29032;56.028;92.904;2023-05-14T08:16:54;98962.25;;;15.16;19.50
42887;BME280;29032;56.028;92.904;2023-05-14T08:22:16;98956.72;;;15.41;18.97
42887;BME280;29032;56.028;92.904;2023-05-14T08:27:18;98950.28;;;15.24;19.04
42887;BME280;29032;56.028;92.904;2023-05-14T08:32:20;98936.81;;;15.37;18.85
42887;BME280;29032;56.028;92.904;2023-05-14T08:37:23;98924.97;;;15.54;18.72
42887;BME280;29032;56.028;92.904;2023-05-14T08:42:26;98919.84;;;15.75;17.59
42887;BME280;29032;56.028;92.904;2023-05-14T08:47:30;98919.97;;;15.85;17.82
42887;BME280;29032;56.028;92.904;2023-05-14T08:52:34;98912.53;;;16.05;17.22
42887;BME280;29032;56.028;92.904;2023-05-14T08:57:54;98897.56;;;16.35;18.28
42887;BME280;29032;56.028;92.904;2023-05-14T09:08:37;98891.75;;;17.37;16.10
42887;BME280;29032;56.028;92.904;2023-05-14T09:13:39;98871.22;;;17.34;15.91
42887;BME280;29032;56.028;92.904;2023-05-14T09:18:42;98874.31;;;17.38;18.33
42887;BME280;29032;56.028;92.904;2023-05-14T09:24:05;98867.81;;;17.63;17.90
42887;BME280;29032;56.028;92.904;2023-05-14T09:29:08;98852.81;;;17.68;18.15
42887;BME280;29032;56.028;92.904;2023-05-14T09:34:10;98845.69;;;17.67;16.19
42887;BME280;29032;56.028;92.904;2023-05-14T09:39:32;98833.16;;;17.68;15.64
42887;BME280;29032;56.028;92.904;2023-05-14T09:44:35;98831.28;;;17.53;17.24
42887;BME280;29032;56.028;92.904;2023-05-14T09:49:37;98826.38;;;17.71;16.08
42887;BME280;29032;56.028;92.904;2023-05-14T09:54:42;98808.28;;;18.01;17.12
42887;BME280;29032;56.028;92.904;2023-05-14T09:59:44;98809.31;;;18.15;16.17
42887;BME280;29032;56.028;92.904;2023-05-14T10:04:46;98801.22;;;18.29;15.86
42887;BME280;29032;56.028;92.904;2023-05-14T10:09:56;98784.97;;;18.76;16.99
42887;BME280;29032;56.028;92.904;2023-05-14T10:15:19;98775.28;;;18.98;16.18
42887;BME280;29032;56.028;92.904;2023-05-14T10:20:42;98767.97;;;18.64;16.15
42887;BME280;29032;56.028;92.904;2023-05-14T10:25:46;98765.16;;;18.35;17.07
42887;BME280;29032;56.028;92.904;2023-05-14T10:30:49;98744.59;;;18.23;14.61
42887;BME280;29032;56.028;92.904;2023-05-14T10:35:56;98731.16;;;18.31;14.60
42887;BME280;29032;56.028;92.904;2023-05-14T10:41:01;98717.94;;;18.82;15.47
42887;BME280;29032;56.028;92.904;2023-05-14T10:46:04;98712.75;;;19.81;14.96
42887;BME280;29032;56.028;92.904;2023-05-14T10:51:07;98703.97;;;20.98;14.28
42887;BME280;29032;56.028;92.904;2023-05-14T10:56:12;98700.91;;;22.39;13.75
42887;BME280;29032;56.028;92.904;2023-05-14T11:01:15;98691.44;;;24.09;12.73
42887;BME280;29032;56.028;92.904;2023-05-14T11:06:17;98689.75;;;24.17;12.38
42887;BME280;29032;56.028;92.904;2023-05-14T11:11:20;98682.78;;;22.30;13.30
42887;BME280;29032;56.028;92.904;2023-05-14T11:16:22;98669.00;;;20.80;13.35
42887;BME280;29032;56.028;92.904;2023-05-14T11:26:46;98666.16;;;19.16;14.82
42887;BME280;29032;56.028;92.904;2023-05-14T11:32:06;98656.22;;;18.84;15.89
42887;BME280;29032;56.028;92.904;2023-05-14T11:37:09;98634.22;;;18.11;14.69
42887;BME280;29032;56.028;92.904;2023-05-14T11:42:30;98633.66;;;17.83;16.12
42887;BME280;29032;56.028;92.904;2023-05-14T11:47:32;98626.63;;;17.36;15.55
42887;BME280;29032;56.028;92.904;2023-05-14T11:52:37;98619.81;;;17.20;15.75
42887;BME280;29032;56.028;92.904;2023-05-14T11:57:40;98618.47;;;17.11;15.75
42887;BME280;29032;56.028;92.904;2023-05-14T12:02:42;98613.34;;;16.80;15.21
42887;BME280;29032;56.028;92.904;2023-05-14T12:07:45;98606.91;;;16.34;17.20
42887;BME280;29032;56.028;92.904;2023-05-14T12:12:49;98603.66;;;16.27;17.52
42887;BME280;29032;56.028;92.904;2023-05-14T12:17:51;98600.13;;;16.27;17.57
42887;BME280;29032;56.028;92.904;2023-05-14T12:23:11;98592.97;;;16.16;17.30
42887;BME280;29032;56.028;92.904;2023-05-14T12:28:15;98583.31;;;16.00;17.67
42887;BME280;29032;56.028;92.904;2023-05-14T12:33:17;98581.28;;;15.83;17.15
42887;BME280;29032;56.028;92.904;2023-05-14T12:38:19;98579.22;;;15.66;17.07
42887;BME280;29032;56.028;92.904;2023-05-14T12:43:23;98579.88;;;15.57;17.38
42887;BME280;29032;56.028;92.904;2023-05-14T12:48:25;98557.50;;;15.57;17.51
42887;BME280;29032;56.028;92.904;2023-05-14T12:53:27;98568.75;;;15.67;18.26
42887;BME280;29032;56.028;92.904;2023-05-14T12:58:30;98560.81;;;15.63;18.16
42887;BME280;29032;56.028;92.904;2023-05-14T13:03:32;98561.13;;;15.33;17.22
42887;BME280;29032;56.028;92.904;2023-05-14T13:14:14;98548.13;;;14.93;17.58
42887;BME280;29032;56.028;92.904;2023-05-14T13:19:17;98543.28;;;14.69;18.91
42887;BME280;29032;56.028;92.904;2023-05-14T13:24:37;98535.84;;;14.88;18.72
42887;BME280;29032;56.028;92.904;2023-05-14T13:29:40;98532.00;;;14.59;17.59
42887;BME280;29032;56.028;92.904;2023-05-14T13:40:03;98515.53;;;13.88;18.31
42887;BME280;29032;56.028;92.904;2023-05-14T13:45:08;98504.84;;;13.69;18.82
42887;BME280;29032;56.028;92.904;2023-05-14T13:50:10;98512.34;;;13.51;19.21
42887;BME280;29032;56.028;92.904;2023-05-14T13:55:30;98503.56;;;13.63;18.93
42887;BME280;29032;56.028;92.904;2023-05-14T14:00:34;98499.91;;;13.45;20.27
42887;BME280;29032;56.028;92.904;2023-05-14T14:05:36;98493.63;;;13.37;19.47
42887;BME280;29032;56.028;92.904;2023-05-14T14:10:38;98493.53;;;13.12;19.56
42887;BME280;29032;56.028;92.904;2023-05-14T14:16:00;98497.78;;;13.13;19.84
42887;BME280;29032;56.028;92.904;2023-05-14T14:21:02;98485.59;;;12.78;20.62
42887;BME280;29032;56.028;92.904;2023-05-14T14:26:04;98491.53;;;12.74;20.54
42887;BME280;29032;56.028;92.904;2023-05-14T14:31:07;98483.41;;;12.76;21.05
42887;BME280;29032;56.028;92.904;2023-05-14T14:36:46;98482.63;;;12.83;21.54
42887;BME280;29032;56.028;92.904;2023-05-14T14:41:48;98475.44;;;12.50;21.98
42887;BME280;29032;56.028;92.904;2023-05-14T14:47:10;98480.25;;;12.41;21.61
42887;BME280;29032;56.028;92.904;2023-05-14T14:52:30;98480.63;;;12.53;21.37
42887;BME280;29032;56.028;92.904;2023-05-14T15:03:12;98475.63;;;12.29;20.87
42887;BME280;29032;56.028;92.904;2023-05-14T15:08:14;98467.59;;;12.10;23.86
42887;BME280;29032;56.028;92.904;2023-05-14T15:13:16;98461.16;;;12.23;22.63
42887;BME280;29032;56.028;92.904;2023-05-14T15:18:20;98464.50;;;12.36;22.09
42887;BME280;29032;56.028;92.904;2023-05-14T15:23:22;98459.66;;;12.29;22.14
42887;BME280;29032;56.028;92.904;2023-05-14T15:28:24;98447.41;;;12.25;21.65
42887;BME280;29032;56.028;92.904;2023-05-14T15:33:27;98454.09;;;12.22;21.77
42887;BME280;29032;56.028;92.904;2023-05-14T15:43:49;98439.78;;;11.95;20.93
42887;BME280;29032;56.028;92.904;2023-05-14T15:48:53;98443.28;;;11.72;21.45
42887;BME280;29032;56.028;92.904;2023-05-14T15:53:55;98436.19;;;11.48;21.40
42887;BME280;29032;56.028;92.904;2023-05-14T15:58:57;98439.31;;;11.45;21.65
42887;BME280;29032;56.028;92.904;2023-05-14T16:04:01;98436.16;;;11.41;21.23
42887;BME280;29032;56.028;92.904;2023-05-14T16:09:03;98433.00;;;11.36;21.84
42887;BME280;29032;56.028;92.904;2023-05-14T16:14:05;98424.97;;;11.25;21.71
42887;BME280;29032;56.028;92.904;2023-05-14T16:19:08;98429.41;;;11.13;21.81
42887;BME280;29032;56.028;92.904;2023-05-14T16:24:10;98411.88;;;10.90;21.89
42887;BME280;29032;56.028;92.904;2023-05-14T16:29:12;98416.72;;;10.97;22.36
42887;BME280;29032;56.028;92.904;2023-05-14T16:34:16;98414.50;;;10.95;22.02
42887;BME280;29032;56.028;92.904;2023-05-14T16:39:18;98409.63;;;10.80;21.47
42887;BME280;29032;56.028;92.904;2023-05-14T16:44:20;98399.59;;;10.77;21.20
42887;BME280;29032;56.028;92.904;2023-05-14T16:49:41;98391.91;;;10.91;21.83
42887;BME280;29032;56.028;92.904;2023-05-14T16:54:43;98389.25;;;10.78;24.40
42887;BME280;29032;56.028;92.904;2023-05-14T16:59:45;98388.59;;;10.93;24.86
42887;BME280;29032;56.028;92.904;2023-05-14T17:04:49;98386.06;;;11.10;24.08
42887;BME280;29032;56.028;92.904;2023-05-14T17:09:57;98391.84;;;11.20;24.24
42887;BME280;29032;56.028;92.904;2023-05-14T17:14:59;98378.59;;;10.97;25.54
42887;BME280;29032;56.028;92.904;2023-05-14T17:20:03;98382.31;;;11.00;25.68
42887;BME280;29032;56.028;92.904;2023-05-14T17:25:06;98376.78;;;11.00;23.74
42887;BME280;29032;56.028;92.904;2023-05-14T17:30:09;98365.69;;;11.07;24.74
42887;BME280;29032;56.028;92.904;2023-05-14T17:35:31;98365.72;;;11.15;23.99
42887;BME280;29032;56.028;92.904;2023-05-14T17:40:33;98352.28;;;10.91;24.54
42887;BME280;29032;56.028;92.904;2023-05-14T17:45:35;98361.81;;;10.74;24.20
42887;BME280;29032;56.028;92.904;2023-05-14T17:50:38;98352.09;;;10.81;25.01
42887;BME280;29032;56.028;92.904;2023-05-14T17:55:41;98347.78;;;10.80;24.14
42887;BME280;29032;56.028;92.904;2023-05-14T18:00:43;98343.19;;;10.82;24.42
42887;BME280;29032;56.028;92.904;2023-05-14T18:06:05;98352.66;;;10.87;24.16
42887;BME280;29032;56.028;92.904;2023-05-14T18:11:07;98343.53;;;10.79;23.80
42887;BME280;29032;56.028;92.904;2023-05-14T18:16:09;98341.81;;;10.68;24.65
42887;BME280;29032;56.028;92.904;2023-05-14T18:21:31;98337.25;;;10.78;24.16
42887;BME280;29032;56.028;92.904;2023-05-14T18:26:33;98329.28;;;10.39;25.18
42887;BME280;29032;56.028;92.904;2023-05-14T18:31:35;98329.06;;;10.29;25.67
42887;BME280;29032;56.028;92.904;2023-05-14T18:36:38;98317.22;;;10.28;25.75
42887;BME280;29032;56.028;92.904;2023-05-14T18:41:40;98319.75;;;10.19;25.96
42887;BME280;29032;56.028;92.904;2023-05-14T18:52:41;98311.69;;;10.28;24.71
42887;BME280;29032;56.028;92.904;2023-05-14T18:57:43;98307.81;;;10.03;25.02
42887;BME280;29032;56.028;92.904;2023-05-14T19:02:45;98308.91;;;10.00;24.85
42887;BME280;29032;56.028;92.904;2023-05-14T19:08:06;98311.00;;;10.07;24.76
42887;BME280;29032;56.028;92.904;2023-05-14T19:13:08;98311.31;;;9.75;25.05
42887;BME280;29032;56.028;92.904;2023-05-14T19:18:10;98302.06;;;9.72;25.13
42887;BME280;29032;56.028;92.904;2023-05-14T19:23:14;98310.31;;;9.65;25.16
42887;BME280;29032;56.028;92.904;2023-05-14T19:28:16;98312.63;;;9.53;24.99
42887;BME280;29032;56.028;92.904;2023-05-14T19:49:20;98296.94;;;9.35;24.64
42887;BME280;29032;56.028;92.904;2023-05-14T20:00:20;98301.72;;;9.34;25.03
42887;BME280;29032;56.028;92.904;2023-05-14T20:10:42;98299.22;;;8.89;25.64
42887;BME280;29032;56.028;92.904;2023-05-14T20:15:46;98301.91;;;8.81;25.10
42887;BME280;29032;56.028;92.904;2023-05-14T20:20:48;98298.00;;;8.63;25.33
42887;BME280;29032;56.028;92.904;2023-05-14T20:25:50;98313.88;;;8.50;26.18
42887;BME280;29032;56.028;92.904;2023-05-14T20:30:54;98305.06;;;8.38;25.93
42887;BME280;29032;56.028;92.904;2023-05-14T20:35:56;98309.63;;;8.22;26.21
42887;BME280;29032;56.028;92.904;2023-05-14T20:41:34;98305.72;;;8.31;25.60
42887;BME280;29032;56.028;92.904;2023-05-14T20:46:38;98317.81;;;8.01;27.72
42887;BME280;29032;56.028;92.904;2023-05-14T20:51:40;98319.41;;;7.84;28.27
42887;BME280;29032;56.028;92.904;2023-05-14T20:56:42;98318.22;;;7.79;27.75
42887;BME280;29032;56.028;92.904;2023-05-14T21:01:46;98326.59;;;7.73;28.66
42887;BME280;29032;56.028;92.904;2023-05-14T21:06:47;98320.63;;;7.56;28.84
42887;BME280;29032;56.028;92.904;2023-05-14T21:11:49;98322.19;;;7.51;29.21
42887;BME280;29032;56.028;92.904;2023-05-14T21:16:53;98325.59;;;7.58;29.04
42887;BME280;29032;56.028;92.904;2023-05-14T21:21:55;98320.69;;;7.50;29.22
42887;BME280;29032;56.028;92.904;2023-05-14T21:26:57;98324.41;;;7.40;29.25
42887;BME280;29032;56.028;92.904;2023-05-14T21:32:19;98334.47;;;7.37;29.68
42887;BME280;29032;56.028;92.904;2023-05-14T21:37:21;98328.25;;;7.31;29.47
42887;BME280;29032;56.028;92.904;2023-05-14T21:42:23;98331.53;;;7.30;29.08
42887;BME280;29032;56.028;92.904;2023-05-14T21:47:27;98332.34;;;7.24;29.25
42887;BME280;29032;56.028;92.904;2023-05-14T21:52:29;98333.50;;;7.16;29.66
42887;BME280;29032;56.028;92.904;2023-05-14T21:58:07;98332.97;;;7.17;28.27
42887;BME280;29032;56.028;92.904;2023-05-14T22:03:11;98336.56;;;6.93;29.88
42887;BME280;29032;56.028;92.904;2023-05-14T22:08:31;98340.59;;;6.92;29.20
42887;BME280;29032;56.028;92.904;2023-05-14T22:13:33;98332.09;;;6.71;29.78
42887;BME280;29032;56.028;92.904;2023-05-14T22:18:55;98330.97;;;6.80;29.07
42887;BME280;29032;56.028;92.904;2023-05-14T22:23:57;98331.81;;;6.56;29.46
42887;BME280;29032;56.028;92.904;2023-05-14T22:28:59;98346.84;;;6.55;30.10
42887;BME280;29032;56.028;92.904;2023-05-14T22:34:03;98339.53;;;6.58;29.77
42887;BME280;29032;56.028;92.904;2023-05-14T22:39:05;98345.19;;;6.47;29.53
42887;BME280;29032;56.028;92.904;2023-05-14T22:54:49;98354.69;;;6.70;29.38
42887;BME280;29032;56.028;92.904;2023-05-14T22:59:51;98365.94;;;6.72;29.10
42887;BME280;29032;56.028;92.904;2023-05-14T23:04:55;98360.72;;;6.68;29.03
42887;BME280;29032;56.028;92.904;2023-05-14T23:10:15;98366.69;;;6.72;28.53
42887;BME280;29032;56.028;92.904;2023-05-14T23:20:39;98378.59;;;6.37;29.09
42887;BME280;29032;56.028;92.904;2023-05-14T23:25:41;98392.91;;;6.36;29.16
42887;BME280;29032;56.028;92.904;2023-05-14T23:31:01;98375.97;;;6.51;28.91
42887;BME280;29032;56.028;92.904;2023-05-14T23:36:05;98397.91;;;6.37;30.27
42887;BME280;29032;56.028;92.904;2023-05-14T23:41:08;98402.13;;;6.38;30.36
42887;BME280;29032;56.028;92.904;2023-05-14T23:46:10;98397.66;;;6.60;30.02
42887;BME280;29032;56.028;92.904;2023-05-14T23:51:13;98406.47;;;6.77;30.38
42887;BME280;29032;56.028;92.904;2023-05-14T23:56:52;98416.50;;;6.99;29.09
